createdAt,value
2024-05-09T00:02:06.056Z,34.17
2024-05-09T00:04:33.467Z,34.90
2024-05-09T00:07:00.933Z,34.10
2024-05-09T00:09:28.383Z,33.47
2024-05-09T00:11:55.900Z,32.37
2024-05-09T00:14:23.444Z,32.83
2024-05-09T00:16:50.955Z,34.73
2024-05-09T00:19:18.489Z,35.40
2024-05-09T00:21:46.015Z,35.57
2024-05-09T00:24:13.461Z,32.27
2024-05-09T00:26:40.877Z,33.30
2024-05-09T00:29:08.363Z,33.30
2024-05-09T00:31:35.730Z,31.13
2024-05-09T00:34:03.425Z,33.63
2024-05-09T00:36:30.967Z,35.87
2024-05-09T00:38:58.390Z,32.20
2024-05-09T00:41:25.818Z,32.93
2024-05-09T00:43:53.223Z,35.60
2024-05-09T00:46:21.171Z,33.80
2024-05-09T00:48:49.153Z,31.10
2024-05-09T00:51:17.014Z,33.70
2024-05-09T00:53:44.486Z,35.47
2024-05-09T00:56:12.349Z,38.53
2024-05-09T00:58:39.964Z,34.53
2024-05-09T01:01:08.337Z,37.83
2024-05-09T01:03:35.895Z,36.00
2024-05-09T01:06:03.474Z,34.40
2024-05-09T01:08:31.138Z,34.80
2024-05-09T01:10:58.823Z,33.17
2024-05-09T01:13:26.333Z,30.27
2024-05-09T01:15:53.813Z,29.37
2024-05-09T01:18:21.652Z,34.33
2024-05-09T01:20:49.182Z,33.20
2024-05-09T01:23:16.881Z,32.30
2024-05-09T01:25:45.134Z,36.30
2024-05-09T01:28:13.100Z,33.50
2024-05-09T01:30:40.529Z,34.70
2024-05-09T01:33:10.174Z,35.67
2024-05-09T01:35:37.468Z,35.07
2024-05-09T01:38:05.492Z,34.47
2024-05-09T01:40:37.815Z,31.27
2024-05-09T01:43:02.235Z,32.90
2024-05-09T01:45:29.687Z,32.40
2024-05-09T01:47:57.312Z,32.10
2024-05-09T01:50:36.212Z,31.80
2024-05-09T01:52:54.037Z,33.40
2024-05-09T01:55:21.444Z,32.20
2024-05-09T01:57:48.874Z,30.47
2024-05-09T02:00:22.401Z,33.10
2024-05-09T02:02:45.983Z,33.30
2024-05-09T02:05:13.621Z,33.73
2024-05-09T02:07:41.098Z,33.80
2024-05-09T02:10:13.732Z,33.40
2024-05-09T02:12:39.239Z,32.17
2024-05-09T02:15:06.730Z,35.50
2024-05-09T02:17:34.345Z,31.37
2024-05-09T02:20:01.877Z,30.23
2024-05-09T02:22:29.369Z,28.93
2024-05-09T02:24:56.711Z,29.43
2024-05-09T02:27:24.105Z,30.63
2024-05-09T02:29:51.532Z,29.07
2024-05-09T02:32:19.081Z,33.47
2024-05-09T02:34:46.586Z,32.00
2024-05-09T02:37:13.980Z,30.23
2024-05-09T02:39:41.399Z,31.03
2024-05-09T02:42:08.809Z,27.90
2024-05-09T02:44:36.276Z,25.47
2024-05-09T02:47:03.778Z,25.40
2024-05-09T02:49:31.232Z,28.10
2024-05-09T02:51:58.692Z,27.23
2024-05-09T02:54:26.095Z,23.87
2024-05-09T02:56:53.489Z,25.23
2024-05-09T02:59:20.958Z,24.53
2024-05-09T03:01:48.563Z,23.70
2024-05-09T03:04:16.079Z,26.87
2024-05-09T03:06:43.526Z,25.47
2024-05-09T03:09:11.013Z,21.50
2024-05-09T03:11:40.310Z,22.03
2024-05-09T03:14:07.830Z,22.47
2024-05-09T03:16:38.790Z,24.83
2024-05-09T03:19:06.355Z,23.23
2024-05-09T03:21:35.509Z,23.47
2024-05-09T03:24:02.916Z,22.93
2024-05-09T03:26:30.418Z,21.43
2024-05-09T03:28:57.780Z,22.00
2024-05-09T03:31:25.271Z,24.00
2024-05-09T03:33:52.981Z,25.87
2024-05-09T03:36:20.503Z,24.13
2024-05-09T03:38:49.555Z,21.27
2024-05-09T03:41:18.528Z,21.43
2024-05-09T03:43:45.977Z,21.77
2024-05-09T03:46:13.485Z,23.50
2024-05-09T03:48:40.991Z,21.40
2024-05-09T03:51:08.715Z,24.73
2024-05-09T03:53:36.253Z,25.20
2024-05-09T03:56:05.362Z,24.70
2024-05-09T03:58:32.782Z,24.90
2024-05-09T04:01:00.214Z,24.53
2024-05-09T04:03:27.853Z,24.67
2024-05-09T04:05:56.098Z,24.77
2024-05-09T04:08:23.534Z,25.87
2024-05-09T04:10:50.993Z,23.80
2024-05-09T04:13:18.419Z,23.53
2024-05-09T04:15:45.875Z,26.10
2024-05-09T04:18:13.402Z,28.60
2024-05-09T04:20:41.501Z,21.27
2024-05-09T04:23:10.865Z,21.43
2024-05-09T04:25:38.422Z,20.13
2024-05-09T04:28:06.034Z,19.90
2024-05-09T04:30:38.439Z,23.53
2024-05-09T04:33:03.019Z,21.70
2024-05-09T04:35:30.732Z,21.03
2024-05-09T04:37:58.252Z,25.33
2024-05-09T04:40:32.987Z,23.03
2024-05-09T04:42:54.715Z,22.40
2024-05-09T04:45:22.149Z,23.07
2024-05-09T04:47:49.911Z,22.93
2024-05-09T04:50:25.351Z,23.77
2024-05-09T04:52:46.647Z,22.83
2024-05-09T04:55:15.826Z,19.07
2024-05-09T04:57:43.260Z,20.43
2024-05-09T05:00:14.896Z,21.53
2024-05-09T05:02:40.099Z,23.23
2024-05-09T05:05:07.668Z,20.77
2024-05-09T05:07:35.102Z,18.70
2024-05-09T05:10:04.451Z,18.40
2024-05-09T05:12:49.576Z,21.53
2024-05-09T05:15:17.143Z,17.43
2024-05-09T05:17:44.621Z,21.70
2024-05-09T05:20:15.260Z,20.70
2024-05-09T05:22:42.847Z,23.03
2024-05-09T05:25:10.275Z,26.63
2024-05-09T05:27:38.248Z,27.23
2024-05-09T05:30:07.533Z,24.87
2024-05-09T05:32:34.992Z,28.90
2024-05-09T05:35:02.495Z,25.57
2024-05-09T05:37:30.066Z,26.43
2024-05-09T05:39:58.077Z,26.87
2024-05-09T05:42:25.467Z,28.30
2024-05-09T05:44:52.973Z,23.60
2024-05-09T05:47:20.490Z,26.73
2024-05-09T05:49:47.932Z,26.00
2024-05-09T05:52:15.317Z,25.43
2024-05-09T05:54:42.717Z,24.67
2024-05-09T05:57:10.143Z,25.13
2024-05-09T05:59:37.607Z,22.37
2024-05-09T06:02:05.171Z,24.80
2024-05-09T06:04:32.640Z,23.00
2024-05-09T06:07:00.051Z,21.47
2024-05-09T06:09:27.525Z,19.67
2024-05-09T06:11:55.091Z,19.47
2024-05-09T06:14:22.513Z,17.47
2024-05-09T06:16:49.928Z,16.30
2024-05-09T06:19:17.404Z,16.00
2024-05-09T06:21:45.117Z,18.10
2024-05-09T06:24:13.193Z,16.23
2024-05-09T06:26:42.257Z,14.73
2024-05-09T06:29:09.961Z,15.77
2024-05-09T06:31:44.624Z,14.77
2024-05-09T06:34:12.171Z,16.20
2024-05-09T06:36:39.958Z,15.20
2024-05-09T06:39:09.090Z,16.90
2024-05-09T06:41:36.772Z,15.70
2024-05-09T06:44:04.259Z,16.10
2024-05-09T06:46:31.713Z,15.90
2024-05-09T06:49:01.329Z,14.20
2024-05-09T06:51:31.021Z,15.20
2024-05-09T06:53:58.417Z,15.93
2024-05-09T06:56:25.917Z,16.47
2024-05-09T06:58:54.158Z,15.10
2024-05-09T07:01:21.652Z,15.30
2024-05-09T07:03:49.150Z,14.33
2024-05-09T07:06:16.673Z,14.00
2024-05-09T07:08:44.068Z,14.10
2024-05-09T07:11:11.642Z,13.27
2024-05-09T07:13:39.165Z,13.60
2024-05-09T07:16:06.636Z,15.57
2024-05-09T07:18:34.539Z,13.80
2024-05-09T07:21:02.124Z,15.13
2024-05-09T07:23:29.522Z,16.60
2024-05-09T07:26:01.380Z,17.03
2024-05-09T07:28:29.952Z,13.20
2024-05-09T07:30:57.380Z,15.80
2024-05-09T07:33:25.104Z,14.00
2024-05-09T07:35:53.044Z,23.20
2024-05-09T07:38:20.855Z,25.40
2024-05-09T07:40:48.697Z,19.50
2024-05-09T07:43:16.567Z,26.10
2024-05-09T07:45:51.852Z,16.10
2024-05-09T07:49:45.075Z,15.87
2024-05-09T07:53:37.205Z,17.97
2024-05-09T07:55:41.732Z,17.00
2024-05-09T07:58:09.493Z,18.57
2024-05-09T08:00:37.034Z,20.00
2024-05-09T08:03:04.671Z,12.77
2024-05-09T08:05:32.295Z,21.37
2024-05-09T08:07:59.759Z,15.80
2024-05-09T08:10:29.095Z,18.33
2024-05-09T08:12:56.236Z,25.33
2024-05-09T08:15:25.170Z,12.53
2024-05-09T08:17:52.750Z,16.87
2024-05-09T08:20:27.020Z,7.53
2024-05-09T08:22:49.229Z,10.70
2024-05-09T08:25:16.766Z,13.90
2024-05-09T08:27:44.370Z,15.50
2024-05-09T08:30:18.975Z,11.13
2024-05-09T08:32:40.987Z,13.03
2024-05-09T08:35:08.570Z,12.80
2024-05-09T08:37:38.879Z,17.57
2024-05-09T08:40:08.497Z,11.70
2024-05-09T08:42:37.557Z,10.90
2024-05-09T08:45:05.181Z,11.37
2024-05-09T08:47:32.775Z,16.20
2024-05-09T08:50:01.957Z,10.00
2024-05-09T08:52:29.452Z,8.33
2024-05-09T08:54:56.905Z,8.03
2024-05-09T08:57:25.753Z,9.60
2024-05-09T08:59:54.262Z,16.17
2024-05-09T09:02:22.757Z,13.47
2024-05-09T09:04:52.349Z,10.40
2024-05-09T09:07:21.224Z,12.67
2024-05-09T09:09:49.327Z,18.63
2024-05-09T09:12:16.736Z,18.37
2024-05-09T09:14:44.183Z,16.77
2024-05-09T09:17:15.861Z,14.97
2024-05-09T09:19:43.967Z,21.20
2024-05-09T09:22:11.589Z,17.10
2024-05-09T09:24:39.090Z,19.70
2024-05-09T09:27:07.484Z,23.93
2024-05-09T09:29:34.852Z,24.30
2024-05-09T09:32:06.452Z,29.07
2024-05-09T09:34:34.012Z,28.97
2024-05-09T09:37:05.013Z,31.77
2024-05-09T09:39:33.589Z,28.67
2024-05-09T09:42:01.243Z,30.60
2024-05-09T09:44:28.923Z,16.20
2024-05-09T09:46:57.091Z,37.13
2024-05-09T09:49:24.955Z,21.00
2024-05-09T09:51:52.799Z,15.13
2024-05-09T09:54:21.023Z,23.93
2024-05-09T09:56:48.551Z,21.73
2024-05-09T09:59:16.611Z,21.97
2024-05-09T10:01:47.182Z,30.77
2024-05-09T10:04:17.183Z,26.53
2024-05-09T10:06:48.936Z,26.40
2024-05-09T10:09:18.063Z,29.80
2024-05-09T10:11:51.741Z,34.73
2024-05-09T10:14:15.430Z,20.87
2024-05-09T10:16:45.648Z,43.07
2024-05-09T10:19:23.506Z,42.00
2024-05-09T10:21:50.970Z,30.87
2024-05-09T10:24:18.829Z,43.03
2024-05-09T10:26:47.818Z,31.97
2024-05-09T10:29:16.084Z,27.47
2024-05-09T10:31:44.310Z,33.27
2024-05-09T10:34:18.787Z,40.57
2024-05-09T10:36:46.581Z,23.03
2024-05-09T10:39:14.297Z,30.90
2024-05-09T10:41:41.722Z,29.07
2024-05-09T10:44:12.655Z,42.87
2024-05-09T10:46:40.168Z,25.67
2024-05-09T10:49:08.536Z,30.77
2024-05-09T10:51:36.595Z,29.87
2024-05-09T10:54:03.950Z,35.30
2024-05-09T10:56:31.401Z,42.90
2024-05-09T10:58:58.799Z,51.23
2024-05-09T11:01:27.721Z,43.57
2024-05-09T11:03:56.992Z,66.67
2024-05-09T11:06:24.577Z,47.77
2024-05-09T11:08:52.020Z,21.13
2024-05-09T11:11:19.865Z,56.87
2024-05-09T11:13:47.241Z,33.80
2024-05-09T11:16:21.645Z,53.47
2024-05-09T11:18:56.438Z,57.10
2024-05-09T11:21:24.409Z,43.20
2024-05-09T11:23:52.047Z,45.97
2024-05-09T11:26:21.756Z,47.13
2024-05-09T11:28:50.149Z,40.03
2024-05-09T11:31:17.727Z,22.83
2024-05-09T11:33:48.193Z,27.17
2024-05-09T11:36:15.709Z,11.53
2024-05-09T11:38:43.226Z,21.67
2024-05-09T11:41:12.272Z,11.73
2024-05-09T11:43:40.906Z,17.70
2024-05-09T11:46:08.446Z,27.33
2024-05-09T11:48:36.213Z,11.90
2024-05-09T11:51:03.683Z,17.93
2024-05-09T11:53:31.119Z,19.13
2024-05-09T11:55:58.561Z,7.73
2024-05-09T11:58:26.031Z,22.90
2024-05-09T12:00:53.514Z,12.80
2024-05-09T12:03:21.130Z,7.17
2024-05-09T12:05:48.769Z,11.33
2024-05-09T12:08:16.182Z,7.63
2024-05-09T12:10:43.714Z,9.50
2024-05-09T12:13:11.173Z,12.13
2024-05-09T12:15:39.192Z,10.93
2024-05-09T12:18:09.484Z,3.60
2024-05-09T12:20:39.408Z,6.17
2024-05-09T12:23:06.184Z,6.67
2024-05-09T12:25:33.801Z,5.60
2024-05-09T12:28:01.587Z,16.00
2024-05-09T12:30:36.552Z,7.43
2024-05-09T12:32:58.322Z,6.77
2024-05-09T12:35:27.910Z,5.40
2024-05-09T12:37:55.511Z,23.63
2024-05-09T12:40:31.508Z,21.37
2024-05-09T12:42:52.099Z,43.50
2024-05-09T12:45:19.791Z,18.90
2024-05-09T12:47:47.293Z,15.60
2024-05-09T12:50:22.360Z,29.10
2024-05-09T12:52:44.148Z,14.93
2024-05-09T12:55:11.788Z,8.47
2024-05-09T12:57:39.432Z,23.10
2024-05-09T13:00:09.378Z,37.93
2024-05-09T13:02:36.355Z,18.83
2024-05-09T13:05:04.246Z,23.80
2024-05-09T13:07:31.902Z,28.37
2024-05-09T13:09:59.393Z,30.23
2024-05-09T13:12:26.983Z,19.50
2024-05-09T13:14:55.289Z,36.30
2024-05-09T13:17:22.922Z,7.30
2024-05-09T13:19:50.390Z,17.47
2024-05-09T13:22:17.840Z,21.80
2024-05-09T13:24:45.243Z,18.20
2024-05-09T13:27:12.659Z,9.47
2024-05-09T13:29:42.818Z,15.80
2024-05-09T13:32:09.185Z,110.07
2024-05-09T13:34:38.885Z,23.80
2024-05-09T13:37:06.362Z,18.27
2024-05-09T13:39:34.866Z,10.27
2024-05-09T13:42:02.332Z,8.83
2024-05-09T13:44:29.754Z,28.83
2024-05-09T13:46:57.213Z,13.73
2024-05-09T13:49:24.858Z,13.50
2024-05-09T13:51:52.344Z,27.90
2024-05-09T13:54:22.368Z,12.57
2024-05-09T13:56:49.007Z,131.90
2024-05-09T13:59:16.399Z,23.50
2024-05-09T14:01:44.136Z,14.13
2024-05-09T14:04:11.849Z,15.63
2024-05-09T14:06:39.400Z,9.97
2024-05-09T14:09:08.898Z,15.00
2024-05-09T14:11:36.845Z,33.00
2024-05-09T14:14:04.299Z,16.47
2024-05-09T14:16:31.959Z,15.30
2024-05-09T14:18:59.541Z,29.30
2024-05-09T14:21:26.984Z,18.77
2024-05-09T14:23:54.385Z,34.33
2024-05-09T14:26:21.866Z,17.57
2024-05-09T14:28:49.286Z,18.10
2024-05-09T14:31:16.777Z,30.83
2024-05-09T14:33:44.429Z,40.40
2024-05-09T14:36:12.482Z,20.70
2024-05-09T14:38:39.897Z,53.40
2024-05-09T14:41:09.225Z,19.43
2024-05-09T14:43:36.855Z,13.00
2024-05-09T14:46:05.444Z,12.67
2024-05-09T14:48:33.174Z,9.80
2024-05-09T14:51:00.666Z,27.17
2024-05-09T14:53:28.284Z,22.37
2024-05-09T14:55:55.888Z,32.50
2024-05-09T14:58:23.828Z,11.57
2024-05-09T15:00:52.254Z,11.07
2024-05-09T15:03:21.570Z,13.80
2024-05-09T15:05:49.970Z,16.13
2024-05-09T15:08:19.441Z,15.70
2024-05-09T15:10:49.592Z,45.47
2024-05-09T15:13:18.024Z,27.13
2024-05-09T15:15:46.395Z,55.17
2024-05-09T15:18:14.703Z,26.50
2024-05-09T15:20:44.294Z,24.13
2024-05-09T15:23:11.884Z,12.27
2024-05-09T15:25:39.285Z,25.97
2024-05-09T15:28:09.545Z,11.37
2024-05-09T15:30:37.691Z,9.73
2024-05-09T15:33:06.899Z,14.47
2024-05-09T15:35:34.761Z,9.67
2024-05-09T15:38:04.553Z,15.23
2024-05-09T15:40:39.098Z,11.97
2024-05-09T15:43:01.730Z,21.00
2024-05-09T15:45:29.300Z,23.33
2024-05-09T15:47:57.260Z,46.43
2024-05-09T15:50:35.400Z,22.83
2024-05-09T15:52:55.161Z,21.57
2024-05-09T15:55:22.754Z,27.90
2024-05-09T15:57:50.143Z,11.83
2024-05-09T16:00:25.065Z,12.77
2024-05-09T16:02:46.780Z,43.37
2024-05-09T16:05:14.551Z,7.60
2024-05-09T16:07:41.983Z,9.20
2024-05-09T16:10:11.191Z,16.17
2024-05-09T16:12:38.439Z,33.90
2024-05-09T16:15:06.133Z,27.97
2024-05-09T16:17:33.698Z,16.67
2024-05-09T16:20:01.212Z,11.53
2024-05-09T16:22:28.626Z,24.57
2024-05-09T16:24:56.218Z,12.00
2024-05-09T16:27:23.755Z,19.13
2024-05-09T16:29:51.167Z,8.90
2024-05-09T16:32:18.763Z,10.13
2024-05-09T16:34:46.306Z,7.33
2024-05-09T16:37:13.818Z,21.43
2024-05-09T16:39:41.192Z,40.63
2024-05-09T16:42:08.603Z,34.40
2024-05-09T16:44:36.018Z,34.33
2024-05-09T16:47:03.774Z,13.83
2024-05-09T16:49:31.401Z,8.03
2024-05-09T16:51:58.999Z,20.83
2024-05-09T16:54:26.490Z,6.20
2024-05-09T16:56:53.898Z,19.00
2024-05-09T16:59:22.388Z,7.07
2024-05-09T17:01:49.884Z,17.60
2024-05-09T17:04:17.556Z,15.53
2024-05-09T17:06:45.474Z,5.97
2024-05-09T17:09:15.639Z,23.70
2024-05-09T17:11:41.936Z,27.57
2024-05-09T17:14:10.330Z,40.57
2024-05-09T17:16:37.834Z,8.03
2024-05-09T17:19:06.301Z,22.73
2024-05-09T17:21:33.935Z,41.90
2024-05-09T17:24:01.398Z,26.67
2024-05-09T17:26:30.474Z,30.17
2024-05-09T17:28:58.074Z,18.97
2024-05-09T17:31:25.591Z,31.53
2024-05-09T17:33:53.296Z,44.37
2024-05-09T17:36:20.910Z,26.90
2024-05-09T17:38:48.356Z,23.57
2024-05-09T17:41:15.809Z,20.03
2024-05-09T17:43:43.232Z,25.90
2024-05-09T17:46:10.685Z,31.27
2024-05-09T17:48:38.315Z,23.60
2024-05-09T17:51:06.137Z,31.23
2024-05-09T17:53:33.564Z,32.00
2024-05-09T17:56:01.264Z,25.03
2024-05-09T17:58:29.048Z,27.20
2024-05-09T18:00:56.559Z,23.50
2024-05-09T18:03:24.133Z,25.87
2024-05-09T18:05:51.996Z,24.37
2024-05-09T18:08:19.427Z,24.60
2024-05-09T18:10:46.930Z,27.37
2024-05-09T18:13:14.493Z,30.63
2024-05-09T18:15:42.006Z,16.70
2024-05-09T18:18:10.130Z,16.97
2024-05-09T18:20:43.618Z,11.73
2024-05-09T18:23:07.551Z,12.27
2024-05-09T18:25:35.137Z,6.10
2024-05-09T18:28:03.244Z,4.80
2024-05-09T18:30:35.007Z,7.00
2024-05-09T18:32:59.792Z,9.10
2024-05-09T18:35:27.259Z,10.13
2024-05-09T18:37:54.741Z,8.63
2024-05-09T18:40:31.195Z,5.70
2024-05-09T18:42:51.180Z,11.40
2024-05-09T18:45:18.648Z,9.87
2024-05-09T18:47:46.222Z,15.07
2024-05-09T18:50:20.531Z,9.60
2024-05-09T18:52:42.696Z,9.17
2024-05-09T18:55:10.228Z,11.10
2024-05-09T18:57:37.757Z,9.00
2024-05-09T19:00:05.753Z,10.77
2024-05-09T19:02:34.530Z,12.80
2024-05-09T19:05:02.105Z,11.30
2024-05-09T19:07:29.554Z,12.33
2024-05-09T19:09:56.943Z,7.50
2024-05-09T19:12:24.389Z,6.53
2024-05-09T19:14:51.763Z,10.23
2024-05-09T19:17:19.194Z,7.30
2024-05-09T19:19:47.081Z,11.70
2024-05-09T19:22:14.547Z,8.00
2024-05-09T19:24:41.984Z,8.00
2024-05-09T19:27:09.475Z,10.00
2024-05-09T19:29:36.964Z,7.67
2024-05-09T19:32:04.784Z,8.37
2024-05-09T19:34:32.238Z,6.17
2024-05-09T19:37:01.110Z,6.30
2024-05-09T19:39:28.566Z,6.93
2024-05-09T19:41:55.992Z,7.93
2024-05-09T19:44:23.461Z,8.60
2024-05-09T19:46:50.932Z,5.77
2024-05-09T19:49:18.487Z,6.27
2024-05-09T19:51:46.050Z,8.20
2024-05-09T19:54:13.421Z,7.10
2024-05-09T19:56:42.507Z,5.97
2024-05-09T19:59:09.911Z,5.93
2024-05-09T20:01:37.508Z,5.70
2024-05-09T20:04:05.462Z,4.17
2024-05-09T20:06:33.636Z,3.93
2024-05-09T20:09:01.040Z,3.00
2024-05-09T20:11:28.464Z,4.03
2024-05-09T20:13:57.521Z,3.87
2024-05-09T20:16:25.091Z,3.70
2024-05-09T20:18:52.678Z,3.23
2024-05-09T20:21:20.269Z,3.90
2024-05-09T20:23:47.711Z,3.83
2024-05-09T20:26:15.131Z,7.40
2024-05-09T20:28:44.193Z,6.10
2024-05-09T20:31:13.540Z,3.70
2024-05-09T20:33:41.179Z,5.00
2024-05-09T20:36:08.634Z,4.90
2024-05-09T20:38:36.105Z,6.00
2024-05-09T20:41:03.591Z,4.77
2024-05-09T20:43:31.244Z,5.90
2024-05-09T20:45:58.744Z,5.53
2024-05-09T20:48:26.223Z,5.57
2024-05-09T20:50:53.690Z,4.80
2024-05-09T20:53:21.152Z,7.33
2024-05-09T20:55:48.588Z,6.10
2024-05-09T20:58:16.049Z,6.10
2024-05-09T21:00:45.595Z,6.53
2024-05-09T21:03:14.027Z,8.13
2024-05-09T21:05:42.360Z,5.80
2024-05-09T21:08:09.912Z,6.77
2024-05-09T21:10:37.857Z,7.00
2024-05-09T21:13:06.794Z,5.10
2024-05-09T21:15:35.526Z,4.70
2024-05-09T21:18:03.547Z,5.10
2024-05-09T21:20:33.340Z,3.97
2024-05-09T21:23:04.093Z,5.73
2024-05-09T21:25:31.811Z,5.27
2024-05-09T21:27:59.429Z,5.50
2024-05-09T21:30:36.890Z,3.20
2024-05-09T21:32:56.475Z,3.33
2024-05-09T21:35:23.878Z,3.13
2024-05-09T21:37:51.297Z,3.10
2024-05-09T21:40:27.124Z,3.37
2024-05-09T21:42:49.647Z,5.03
2024-05-09T21:45:17.065Z,3.50
2024-05-09T21:47:44.628Z,5.37
2024-05-09T21:50:22.120Z,3.27
2024-05-09T21:52:41.101Z,3.20
2024-05-09T21:55:08.689Z,3.70
2024-05-09T21:57:36.279Z,3.03
2024-05-09T22:00:08.508Z,4.00
2024-05-09T22:02:34.590Z,2.83
2024-05-09T22:05:02.318Z,3.07
2024-05-09T22:07:29.851Z,2.67
2024-05-09T22:09:57.295Z,2.97
2024-05-09T22:12:24.757Z,3.77
2024-05-09T22:14:52.208Z,2.90
2024-05-09T22:17:19.601Z,3.00
2024-05-09T22:19:47.217Z,2.83
2024-05-09T22:22:14.706Z,3.50
2024-05-09T22:24:42.116Z,3.00
2024-05-09T22:27:11.162Z,3.60
2024-05-09T22:29:38.903Z,3.20
2024-05-09T22:32:06.494Z,3.30
2024-05-09T22:34:33.983Z,4.20
2024-05-09T22:37:01.403Z,4.17
2024-05-09T22:39:28.824Z,3.97
2024-05-09T22:41:56.246Z,4.17
2024-05-09T22:44:23.646Z,3.77
2024-05-09T22:46:51.133Z,3.27
2024-05-09T22:49:18.654Z,3.80
2024-05-09T22:51:46.300Z,3.47
2024-05-09T22:54:13.740Z,3.90
2024-05-09T22:56:42.676Z,3.93
2024-05-09T22:59:10.080Z,3.50
2024-05-09T23:01:37.622Z,3.30
2024-05-09T23:04:05.350Z,4.10
2024-05-09T23:06:32.927Z,3.67
2024-05-09T23:09:00.400Z,3.40
2024-05-09T23:11:27.802Z,3.63
2024-05-09T23:13:55.200Z,3.47
2024-05-09T23:16:22.751Z,3.53
2024-05-09T23:18:50.428Z,3.30
2024-05-09T23:21:18.047Z,2.90
2024-05-09T23:23:45.459Z,2.90
2024-05-09T23:26:12.883Z,3.50
2024-05-09T23:28:40.303Z,2.77
2024-05-09T23:31:07.789Z,3.50
2024-05-09T23:33:35.627Z,3.63
2024-05-09T23:36:03.186Z,2.97
2024-05-09T23:38:30.602Z,3.07
2024-05-09T23:40:58.094Z,3.00
2024-05-09T23:43:25.768Z,3.10
2024-05-09T23:45:53.360Z,2.80
2024-05-09T23:48:20.900Z,3.13
2024-05-09T23:50:48.551Z,3.70
2024-05-09T23:53:15.992Z,3.37
2024-05-09T23:55:43.433Z,5.60
2024-05-09T23:58:10.936Z,4.50
